sensor_id;sensor_type;location;lat;lon;timestamp;P1;durP1;ratioP1;P2;durP2;ratioP2
71351;SDS011;59159;51.652;4.864;2023-04-09T00:01:23;6.55;;;3.20;;
71351;SDS011;59159;51.652;4.864;2023-04-09T00:03:49;7.18;;;3.20;;
71351;SDS011;59159;51.652;4.864;2023-04-09T00:06:15;7.28;;;3.13;;
71351;SDS011;59159;51.652;4.864;2023-04-09T00:08:41;7.10;;;3.13;;
71351;SDS011;59159;51.652;4.864;2023-04-09T00:11:07;6.70;;;3.08;;
71351;SDS011;59159;51.652;4.864;2023-04-09T00:13:33;7.07;;;3.08;;
71351;SDS011;59159;51.652;4.864;2023-04-09T00:16:00;7.30;;;3.07;;
71351;SDS011;59159;51.652;4.864;2023-04-09T00:18:26;8.23;;;3.33;;
71351;SDS011;59159;51.652;4.864;2023-04-09T00:20:52;7.55;;;3.17;;
71351;SDS011;59159;51.652;4.864;2023-04-09T00:23:18;7.93;;;3.87;;
71351;SDS011;59159;51.652;4.864;2023-04-09T00:25:44;7.70;;;3.28;;
71351;SDS011;59159;51.652;4.864;2023-04-09T00:28:10;6.63;;;2.97;;
71351;SDS011;59159;51.652;4.864;2023-04-09T00:30:36;6.55;;;3.58;;
71351;SDS011;59159;51.652;4.864;2023-04-09T00:33:02;8.17;;;3.57;;
71351;SDS011;59159;51.652;4.864;2023-04-09T00:35:28;7.40;;;3.05;;
71351;SDS011;59159;51.652;4.864;2023-04-09T00:37:54;7.03;;;3.25;;
71351;SDS011;59159;51.652;4.864;2023-04-09T00:40:20;6.67;;;3.00;;
71351;SDS011;59159;51.652;4.864;2023-04-09T00:42:46;7.45;;;3.20;;
71351;SDS011;59159;51.652;4.864;2023-04-09T00:45:12;6.65;;;3.00;;
71351;SDS011;59159;51.652;4.864;2023-04-09T00:47:38;7.13;;;3.20;;
71351;SDS011;59159;51.652;4.864;2023-04-09T00:50:07;8.38;;;2.95;;
71351;SDS011;59159;51.652;4.864;2023-04-09T00:52:33;7.15;;;3.40;;
71351;SDS011;59159;51.652;4.864;2023-04-09T00:54:59;7.10;;;3.55;;
71351;SDS011;59159;51.652;4.864;2023-04-09T00:57:25;7.67;;;3.07;;
71351;SDS011;59159;51.652;4.864;2023-04-09T00:59:52;7.25;;;3.05;;
71351;SDS011;59159;51.652;4.864;2023-04-09T01:02:18;6.38;;;2.90;;
71351;SDS011;59159;51.652;4.864;2023-04-09T01:04:44;6.13;;;2.80;;
71351;SDS011;59159;51.652;4.864;2023-04-09T01:09:41;7.18;;;3.28;;
71351;SDS011;59159;51.652;4.864;2023-04-09T01:12:09;7.50;;;3.20;;
71351;SDS011;59159;51.652;4.864;2023-04-09T01:14:38;8.45;;;3.25;;
71351;SDS011;59159;51.652;4.864;2023-04-09T01:17:11;6.72;;;2.92;;
71351;SDS011;59159;51.652;4.864;2023-04-09T01:22:15;7.47;;;3.00;;
71351;SDS011;59159;51.652;4.864;2023-04-09T01:24:50;6.97;;;3.42;;
71351;SDS011;59159;51.652;4.864;2023-04-09T01:27:21;5.95;;;2.80;;
71351;SDS011;59159;51.652;4.864;2023-04-09T01:29:48;7.73;;;3.30;;
71351;SDS011;59159;51.652;4.864;2023-04-09T01:32:16;6.45;;;3.15;;
71351;SDS011;59159;51.652;4.864;2023-04-09T01:34:44;8.63;;;4.28;;
71351;SDS011;59159;51.652;4.864;2023-04-09T01:37:12;6.60;;;3.20;;
71351;SDS011;59159;51.652;4.864;2023-04-09T01:39:38;7.38;;;3.20;;
71351;SDS011;59159;51.652;4.864;2023-04-09T01:42:05;7.13;;;3.03;;
71351;SDS011;59159;51.652;4.864;2023-04-09T01:44:35;6.40;;;2.95;;
71351;SDS011;59159;51.652;4.864;2023-04-09T01:47:02;6.77;;;3.13;;
71351;SDS011;59159;51.652;4.864;2023-04-09T01:49:29;8.10;;;3.63;;
71351;SDS011;59159;51.652;4.864;2023-04-09T01:51:55;7.40;;;3.28;;
71351;SDS011;59159;51.652;4.864;2023-04-09T01:54:21;7.20;;;3.03;;
71351;SDS011;59159;51.652;4.864;2023-04-09T01:56:49;7.93;;;3.83;;
71351;SDS011;59159;51.652;4.864;2023-04-09T01:59:15;6.60;;;3.00;;
71351;SDS011;59159;51.652;4.864;2023-04-09T02:04:13;7.40;;;3.15;;
71351;SDS011;59159;51.652;4.864;2023-04-09T02:06:49;7.80;;;3.83;;
71351;SDS011;59159;51.652;4.864;2023-04-09T02:09:19;6.80;;;3.25;;
71351;SDS011;59159;51.652;4.864;2023-04-09T02:11:46;7.67;;;3.63;;
71351;SDS011;59159;51.652;4.864;2023-04-09T02:14:13;7.28;;;3.55;;
71351;SDS011;59159;51.652;4.864;2023-04-09T02:16:39;7.82;;;3.35;;
71351;SDS011;59159;51.652;4.864;2023-04-09T02:19:06;7.30;;;3.20;;
71351;SDS011;59159;51.652;4.864;2023-04-09T02:21:32;8.35;;;3.92;;
71351;SDS011;59159;51.652;4.864;2023-04-09T02:23:58;7.93;;;3.75;;
71351;SDS011;59159;51.652;4.864;2023-04-09T02:26:24;7.50;;;3.53;;
71351;SDS011;59159;51.652;4.864;2023-04-09T02:28:50;8.00;;;3.60;;
71351;SDS011;59159;51.652;4.864;2023-04-09T02:31:16;7.80;;;3.90;;
71351;SDS011;59159;51.652;4.864;2023-04-09T02:33:42;7.90;;;3.65;;
71351;SDS011;59159;51.652;4.864;2023-04-09T02:36:11;7.77;;;4.00;;
71351;SDS011;59159;51.652;4.864;2023-04-09T02:38:40;7.78;;;3.72;;
71351;SDS011;59159;51.652;4.864;2023-04-09T02:41:06;8.23;;;4.47;;
71351;SDS011;59159;51.652;4.864;2023-04-09T02:43:32;9.13;;;4.40;;
71351;SDS011;59159;51.652;4.864;2023-04-09T02:45:58;7.95;;;4.10;;
71351;SDS011;59159;51.652;4.864;2023-04-09T02:48:24;7.72;;;3.70;;
71351;SDS011;59159;51.652;4.864;2023-04-09T02:50:50;8.47;;;4.00;;
71351;SDS011;59159;51.652;4.864;2023-04-09T02:53:16;8.30;;;4.80;;
71351;SDS011;59159;51.652;4.864;2023-04-09T02:55:42;8.73;;;4.00;;
71351;SDS011;59159;51.652;4.864;2023-04-09T02:58:08;8.45;;;4.00;;
71351;SDS011;59159;51.652;4.864;2023-04-09T03:00:34;9.07;;;4.37;;
71351;SDS011;59159;51.652;4.864;2023-04-09T03:03:00;9.15;;;4.13;;
71351;SDS011;59159;51.652;4.864;2023-04-09T03:05:26;8.57;;;4.63;;
71351;SDS011;59159;51.652;4.864;2023-04-09T03:07:52;8.37;;;4.13;;
71351;SDS011;59159;51.652;4.864;2023-04-09T03:10:19;9.32;;;4.45;;
71351;SDS011;59159;51.652;4.864;2023-04-09T03:12:44;9.25;;;4.22;;
71351;SDS011;59159;51.652;4.864;2023-04-09T03:15:11;9.10;;;4.67;;
71351;SDS011;59159;51.652;4.864;2023-04-09T03:17:38;9.18;;;4.20;;
71351;SDS011;59159;51.652;4.864;2023-04-09T03:20:04;8.13;;;4.28;;
71351;SDS011;59159;51.652;4.864;2023-04-09T03:22:34;8.55;;;4.47;;
71351;SDS011;59159;51.652;4.864;2023-04-09T03:25:00;8.57;;;4.53;;
71351;SDS011;59159;51.652;4.864;2023-04-09T03:27:28;8.95;;;5.10;;
71351;SDS011;59159;51.652;4.864;2023-04-09T03:29:56;8.85;;;4.47;;
71351;SDS011;59159;51.652;4.864;2023-04-09T03:32:22;8.97;;;4.53;;
71351;SDS011;59159;51.652;4.864;2023-04-09T03:34:48;9.27;;;4.40;;
71351;SDS011;59159;51.652;4.864;2023-04-09T03:37:14;8.98;;;4.40;;
71351;SDS011;59159;51.652;4.864;2023-04-09T03:39:40;7.83;;;4.03;;
71351;SDS011;59159;51.652;4.864;2023-04-09T03:42:06;8.90;;;4.82;;
71351;SDS011;59159;51.652;4.864;2023-04-09T03:44:32;8.05;;;4.00;;
71351;SDS011;59159;51.652;4.864;2023-04-09T03:46:58;10.52;;;5.05;;
71351;SDS011;59159;51.652;4.864;2023-04-09T03:49:25;8.07;;;4.00;;
71351;SDS011;59159;51.652;4.864;2023-04-09T03:51:51;9.00;;;4.70;;
71351;SDS011;59159;51.652;4.864;2023-04-09T03:54:17;8.65;;;4.43;;
71351;SDS011;59159;51.652;4.864;2023-04-09T03:56:43;9.37;;;4.83;;
71351;SDS011;59159;51.652;4.864;2023-04-09T03:59:09;9.05;;;4.20;;
71351;SDS011;59159;51.652;4.864;2023-04-09T04:01:35;8.63;;;4.07;;
71351;SDS011;59159;51.652;4.864;2023-04-09T04:04:01;9.07;;;4.37;;
71351;SDS011;59159;51.652;4.864;2023-04-09T04:06:27;8.85;;;4.90;;
71351;SDS011;59159;51.652;4.864;2023-04-09T04:08:53;9.93;;;4.68;;
71351;SDS011;59159;51.652;4.864;2023-04-09T04:11:19;8.77;;;4.30;;
71351;SDS011;59159;51.652;4.864;2023-04-09T04:13:45;9.33;;;3.97;;
71351;SDS011;59159;51.652;4.864;2023-04-09T04:16:11;9.65;;;4.43;;
71351;SDS011;59159;51.652;4.864;2023-04-09T04:18:37;8.27;;;3.83;;
71351;SDS011;59159;51.652;4.864;2023-04-09T04:21:03;8.60;;;4.03;;
71351;SDS011;59159;51.652;4.864;2023-04-09T04:23:29;9.00;;;4.47;;
71351;SDS011;59159;51.652;4.864;2023-04-09T04:25:55;9.23;;;4.43;;
71351;SDS011;59159;51.652;4.864;2023-04-09T04:28:22;8.93;;;4.70;;
71351;SDS011;59159;51.652;4.864;2023-04-09T04:30:48;8.50;;;4.10;;
71351;SDS011;59159;51.652;4.864;2023-04-09T04:33:14;8.82;;;4.38;;
71351;SDS011;59159;51.652;4.864;2023-04-09T04:35:40;8.88;;;4.75;;
71351;SDS011;59159;51.652;4.864;2023-04-09T04:38:06;10.00;;;4.70;;
71351;SDS011;59159;51.652;4.864;2023-04-09T04:40:32;9.70;;;4.50;;
71351;SDS011;59159;51.652;4.864;2023-04-09T04:42:57;8.80;;;4.18;;
71351;SDS011;59159;51.652;4.864;2023-04-09T04:45:23;9.07;;;4.23;;
71351;SDS011;59159;51.652;4.864;2023-04-09T04:47:49;8.52;;;4.28;;
71351;SDS011;59159;51.652;4.864;2023-04-09T04:50:15;10.13;;;4.25;;
71351;SDS011;59159;51.652;4.864;2023-04-09T04:52:41;9.13;;;5.20;;
71351;SDS011;59159;51.652;4.864;2023-04-09T04:55:07;8.35;;;4.57;;
71351;SDS011;59159;51.652;4.864;2023-04-09T04:57:33;8.52;;;3.92;;
71351;SDS011;59159;51.652;4.864;2023-04-09T04:59:59;8.55;;;4.22;;
71351;SDS011;59159;51.652;4.864;2023-04-09T05:02:25;7.87;;;4.00;;
71351;SDS011;59159;51.652;4.864;2023-04-09T05:04:51;9.60;;;4.72;;
71351;SDS011;59159;51.652;4.864;2023-04-09T05:07:17;9.50;;;4.63;;
71351;SDS011;59159;51.652;4.864;2023-04-09T05:09:43;9.67;;;4.20;;
71351;SDS011;59159;51.652;4.864;2023-04-09T05:12:09;9.18;;;4.47;;
71351;SDS011;59159;51.652;4.864;2023-04-09T05:14:36;9.98;;;4.47;;
71351;SDS011;59159;51.652;4.864;2023-04-09T05:17:02;9.23;;;4.90;;
71351;SDS011;59159;51.652;4.864;2023-04-09T05:19:28;9.50;;;4.50;;
71351;SDS011;59159;51.652;4.864;2023-04-09T05:21:54;9.48;;;5.18;;
71351;SDS011;59159;51.652;4.864;2023-04-09T05:24:20;9.38;;;5.10;;
71351;SDS011;59159;51.652;4.864;2023-04-09T05:26:46;8.97;;;4.60;;
71351;SDS011;59159;51.652;4.864;2023-04-09T05:29:12;9.00;;;4.45;;
71351;SDS011;59159;51.652;4.864;2023-04-09T05:31:38;11.38;;;5.03;;
71351;SDS011;59159;51.652;4.864;2023-04-09T05:34:04;9.30;;;4.40;;
71351;SDS011;59159;51.652;4.864;2023-04-09T05:36:30;9.55;;;4.55;;
71351;SDS011;59159;51.652;4.864;2023-04-09T05:38:56;9.38;;;5.03;;
71351;SDS011;59159;51.652;4.864;2023-04-09T05:41:22;9.97;;;5.30;;
71351;SDS011;59159;51.652;4.864;2023-04-09T05:43:48;10.20;;;5.05;;
71351;SDS011;59159;51.652;4.864;2023-04-09T05:46:14;10.18;;;4.90;;
71351;SDS011;59159;51.652;4.864;2023-04-09T05:48:40;9.68;;;4.90;;
71351;SDS011;59159;51.652;4.864;2023-04-09T05:51:06;11.37;;;5.13;;
71351;SDS011;59159;51.652;4.864;2023-04-09T05:53:33;10.98;;;4.85;;
71351;SDS011;59159;51.652;4.864;2023-04-09T05:56:00;9.48;;;4.57;;
71351;SDS011;59159;51.652;4.864;2023-04-09T05:58:27;11.43;;;4.90;;
71351;SDS011;59159;51.652;4.864;2023-04-09T06:00:53;10.82;;;4.97;;
71351;SDS011;59159;51.652;4.864;2023-04-09T06:03:19;9.38;;;4.65;;
71351;SDS011;59159;51.652;4.864;2023-04-09T06:05:45;22.13;;;6.90;;
71351;SDS011;59159;51.652;4.864;2023-04-09T06:08:12;16.55;;;9.27;;
71351;SDS011;59159;51.652;4.864;2023-04-09T06:10:38;22.20;;;10.30;;
71351;SDS011;59159;51.652;4.864;2023-04-09T06:13:04;23.73;;;12.10;;
71351;SDS011;59159;51.652;4.864;2023-04-09T06:15:30;22.00;;;11.50;;
71351;SDS011;59159;51.652;4.864;2023-04-09T06:17:56;24.35;;;11.98;;
71351;SDS011;59159;51.652;4.864;2023-04-09T06:20:22;21.58;;;10.68;;
71351;SDS011;59159;51.652;4.864;2023-04-09T06:22:48;24.07;;;10.97;;
71351;SDS011;59159;51.652;4.864;2023-04-09T06:25:14;26.95;;;13.25;;
71351;SDS011;59159;51.652;4.864;2023-04-09T06:27:40;25.30;;;13.45;;
71351;SDS011;59159;51.652;4.864;2023-04-09T06:30:07;25.30;;;12.93;;
71351;SDS011;59159;51.652;4.864;2023-04-09T06:32:33;29.67;;;14.25;;
71351;SDS011;59159;51.652;4.864;2023-04-09T06:34:59;28.83;;;13.70;;
71351;SDS011;59159;51.652;4.864;2023-04-09T06:37:25;28.40;;;14.88;;
71351;SDS011;59159;51.652;4.864;2023-04-09T06:39:51;30.50;;;14.93;;
71351;SDS011;59159;51.652;4.864;2023-04-09T06:42:17;30.02;;;16.15;;
71351;SDS011;59159;51.652;4.864;2023-04-09T06:44:43;31.00;;;15.18;;
71351;SDS011;59159;51.652;4.864;2023-04-09T06:47:09;29.20;;;14.40;;
71351;SDS011;59159;51.652;4.864;2023-04-09T06:49:35;28.00;;;15.52;;
71351;SDS011;59159;51.652;4.864;2023-04-09T06:52:01;30.17;;;16.15;;
71351;SDS011;59159;51.652;4.864;2023-04-09T06:54:28;26.03;;;15.47;;
71351;SDS011;59159;51.652;4.864;2023-04-09T06:56:54;27.50;;;14.55;;
71351;SDS011;59159;51.652;4.864;2023-04-09T06:59:20;28.88;;;14.40;;
71351;SDS011;59159;51.652;4.864;2023-04-09T07:01:46;27.48;;;14.65;;
71351;SDS011;59159;51.652;4.864;2023-04-09T07:04:12;25.93;;;13.70;;
71351;SDS011;59159;51.652;4.864;2023-04-09T07:06:38;28.48;;;15.07;;
71351;SDS011;59159;51.652;4.864;2023-04-09T07:09:04;25.45;;;13.35;;
71351;SDS011;59159;51.652;4.864;2023-04-09T07:11:31;24.83;;;13.67;;
71351;SDS011;59159;51.652;4.864;2023-04-09T07:13:57;26.63;;;13.55;;
71351;SDS011;59159;51.652;4.864;2023-04-09T07:16:23;24.73;;;13.02;;
71351;SDS011;59159;51.652;4.864;2023-04-09T07:18:49;21.47;;;12.33;;
71351;SDS011;59159;51.652;4.864;2023-04-09T07:21:15;22.90;;;12.57;;
71351;SDS011;59159;51.652;4.864;2023-04-09T07:23:41;21.33;;;11.30;;
71351;SDS011;59159;51.652;4.864;2023-04-09T07:26:08;21.13;;;11.23;;
71351;SDS011;59159;51.652;4.864;2023-04-09T07:28:35;21.37;;;11.90;;
71351;SDS011;59159;51.652;4.864;2023-04-09T07:31:01;22.98;;;11.00;;
71351;SDS011;59159;51.652;4.864;2023-04-09T07:33:28;19.65;;;10.38;;
71351;SDS011;59159;51.652;4.864;2023-04-09T07:35:54;22.13;;;9.67;;
71351;SDS011;59159;51.652;4.864;2023-04-09T07:38:20;20.65;;;11.60;;
71351;SDS011;59159;51.652;4.864;2023-04-09T07:40:46;18.58;;;10.43;;
71351;SDS011;59159;51.652;4.864;2023-04-09T07:43:12;20.77;;;10.03;;
71351;SDS011;59159;51.652;4.864;2023-04-09T07:45:38;18.83;;;9.57;;
71351;SDS011;59159;51.652;4.864;2023-04-09T07:48:04;18.95;;;9.63;;
71351;SDS011;59159;51.652;4.864;2023-04-09T07:50:33;15.70;;;9.05;;
71351;SDS011;59159;51.652;4.864;2023-04-09T07:52:59;18.13;;;10.73;;
71351;SDS011;59159;51.652;4.864;2023-04-09T07:55:25;16.95;;;9.15;;
71351;SDS011;59159;51.652;4.864;2023-04-09T07:57:52;17.23;;;9.13;;
71351;SDS011;59159;51.652;4.864;2023-04-09T08:00:18;16.53;;;8.53;;
71351;SDS011;59159;51.652;4.864;2023-04-09T08:02:44;16.25;;;8.13;;
71351;SDS011;59159;51.652;4.864;2023-04-09T08:05:10;16.23;;;7.93;;
71351;SDS011;59159;51.652;4.864;2023-04-09T08:07:36;15.13;;;7.97;;
71351;SDS011;59159;51.652;4.864;2023-04-09T08:10:03;15.98;;;7.82;;
71351;SDS011;59159;51.652;4.864;2023-04-09T08:12:29;15.25;;;8.07;;
71351;SDS011;59159;51.652;4.864;2023-04-09T08:14:55;14.52;;;7.65;;
71351;SDS011;59159;51.652;4.864;2023-04-09T08:17:21;14.93;;;8.30;;
71351;SDS011;59159;51.652;4.864;2023-04-09T08:19:48;15.13;;;7.95;;
71351;SDS011;59159;51.652;4.864;2023-04-09T08:22:14;14.80;;;7.95;;
71351;SDS011;59159;51.652;4.864;2023-04-09T08:24:41;13.87;;;7.50;;
71351;SDS011;59159;51.652;4.864;2023-04-09T08:27:07;14.63;;;7.95;;
71351;SDS011;59159;51.652;4.864;2023-04-09T08:29:33;13.45;;;7.47;;
71351;SDS011;59159;51.652;4.864;2023-04-09T08:31:59;14.20;;;7.80;;
71351;SDS011;59159;51.652;4.864;2023-04-09T08:34:26;14.23;;;7.47;;
71351;SDS011;59159;51.652;4.864;2023-04-09T08:36:52;13.05;;;7.53;;
71351;SDS011;59159;51.652;4.864;2023-04-09T08:39:18;16.00;;;8.18;;
71351;SDS011;59159;51.652;4.864;2023-04-09T08:41:44;13.00;;;7.40;;
71351;SDS011;59159;51.652;4.864;2023-04-09T08:44:12;13.60;;;7.47;;
71351;SDS011;59159;51.652;4.864;2023-04-09T08:46:38;14.80;;;7.95;;
71351;SDS011;59159;51.652;4.864;2023-04-09T08:49:04;13.57;;;6.63;;
71351;SDS011;59159;51.652;4.864;2023-04-09T08:51:30;12.40;;;6.68;;
71351;SDS011;59159;51.652;4.864;2023-04-09T08:53:57;13.20;;;6.75;;
71351;SDS011;59159;51.652;4.864;2023-04-09T08:56:24;13.70;;;7.67;;
71351;SDS011;59159;51.652;4.864;2023-04-09T08:58:50;12.38;;;6.18;;
71351;SDS011;59159;51.652;4.864;2023-04-09T09:01:17;12.52;;;6.63;;
71351;SDS011;59159;51.652;4.864;2023-04-09T09:06:23;13.07;;;6.60;;
71351;SDS011;59159;51.652;4.864;2023-04-09T09:11:36;11.43;;;6.43;;
71351;SDS011;59159;51.652;4.864;2023-04-09T09:14:03;11.73;;;6.87;;
71351;SDS011;59159;51.652;4.864;2023-04-09T09:16:30;11.95;;;6.78;;
71351;SDS011;59159;51.652;4.864;2023-04-09T09:18:58;13.30;;;6.75;;
71351;SDS011;59159;51.652;4.864;2023-04-09T09:21:25;11.27;;;5.83;;
71351;SDS011;59159;51.652;4.864;2023-04-09T09:23:52;12.50;;;6.60;;
71351;SDS011;59159;51.652;4.864;2023-04-09T09:26:22;11.98;;;6.13;;
71351;SDS011;59159;51.652;4.864;2023-04-09T09:28:49;11.77;;;6.18;;
71351;SDS011;59159;51.652;4.864;2023-04-09T09:31:16;11.03;;;5.80;;
71351;SDS011;59159;51.652;4.864;2023-04-09T09:33:43;12.43;;;6.07;;
71351;SDS011;59159;51.652;4.864;2023-04-09T09:36:09;11.98;;;6.32;;
71351;SDS011;59159;51.652;4.864;2023-04-09T09:38:51;12.40;;;6.57;;
71351;SDS011;59159;51.652;4.864;2023-04-09T09:41:18;11.30;;;6.55;;
71351;SDS011;59159;51.652;4.864;2023-04-09T09:43:44;11.70;;;6.13;;
71351;SDS011;59159;51.652;4.864;2023-04-09T09:46:10;10.93;;;6.40;;
71351;SDS011;59159;51.652;4.864;2023-04-09T09:48:37;10.93;;;5.57;;
71351;SDS011;59159;51.652;4.864;2023-04-09T09:51:06;11.15;;;6.18;;
71351;SDS011;59159;51.652;4.864;2023-04-09T09:53:34;10.63;;;5.43;;
71351;SDS011;59159;51.652;4.864;2023-04-09T09:56:01;10.47;;;5.40;;
71351;SDS011;59159;51.652;4.864;2023-04-09T09:58:47;11.35;;;5.90;;
71351;SDS011;59159;51.652;4.864;2023-04-09T10:01:15;11.35;;;5.90;;
71351;SDS011;59159;51.652;4.864;2023-04-09T10:03:42;10.73;;;5.80;;
71351;SDS011;59159;51.652;4.864;2023-04-09T10:06:08;11.65;;;5.80;;
71351;SDS011;59159;51.652;4.864;2023-04-09T10:08:36;10.70;;;5.15;;
71351;SDS011;59159;51.652;4.864;2023-04-09T10:11:04;11.47;;;6.07;;
71351;SDS011;59159;51.652;4.864;2023-04-09T10:15:57;10.88;;;5.03;;
71351;SDS011;59159;51.652;4.864;2023-04-09T10:18:23;9.25;;;4.75;;
71351;SDS011;59159;51.652;4.864;2023-04-09T10:20:55;11.90;;;6.00;;
71351;SDS011;59159;51.652;4.864;2023-04-09T10:23:40;11.40;;;5.85;;
71351;SDS011;59159;51.652;4.864;2023-04-09T10:26:07;11.88;;;5.68;;
71351;SDS011;59159;51.652;4.864;2023-04-09T10:28:33;9.10;;;4.87;;
71351;SDS011;59159;51.652;4.864;2023-04-09T10:30:59;10.52;;;5.40;;
71351;SDS011;59159;51.652;4.864;2023-04-09T10:33:26;11.95;;;5.18;;
71351;SDS011;59159;51.652;4.864;2023-04-09T10:35:53;10.50;;;5.73;;
71351;SDS011;59159;51.652;4.864;2023-04-09T10:38:32;10.65;;;5.45;;
71351;SDS011;59159;51.652;4.864;2023-04-09T10:41:05;10.63;;;5.05;;
71351;SDS011;59159;51.652;4.864;2023-04-09T10:43:31;10.98;;;5.38;;
71351;SDS011;59159;51.652;4.864;2023-04-09T10:45:58;10.10;;;5.07;;
71351;SDS011;59159;51.652;4.864;2023-04-09T10:48:24;9.95;;;4.80;;
71351;SDS011;59159;51.652;4.864;2023-04-09T10:50:50;10.00;;;5.57;;
71351;SDS011;59159;51.652;4.864;2023-04-09T10:53:20;9.77;;;5.20;;
71351;SDS011;59159;51.652;4.864;2023-04-09T10:55:47;10.27;;;5.40;;
71351;SDS011;59159;51.652;4.864;2023-04-09T10:58:14;9.38;;;4.70;;
71351;SDS011;59159;51.652;4.864;2023-04-09T11:00:41;10.33;;;5.73;;
71351;SDS011;59159;51.652;4.864;2023-04-09T11:03:26;10.57;;;5.28;;
71351;SDS011;59159;51.652;4.864;2023-04-09T11:05:57;10.75;;;5.60;;
71351;SDS011;59159;51.652;4.864;2023-04-09T11:08:26;8.80;;;4.82;;
71351;SDS011;59159;51.652;4.864;2023-04-09T11:10:53;9.77;;;4.93;;
71351;SDS011;59159;51.652;4.864;2023-04-09T11:13:22;10.55;;;4.80;;
71351;SDS011;59159;51.652;4.864;2023-04-09T11:15:48;9.57;;;4.57;;
71351;SDS011;59159;51.652;4.864;2023-04-09T11:18:18;9.47;;;4.60;;
71351;SDS011;59159;51.652;4.864;2023-04-09T11:20:44;9.38;;;4.93;;
71351;SDS011;59159;51.652;4.864;2023-04-09T11:23:12;9.00;;;4.82;;
71351;SDS011;59159;51.652;4.864;2023-04-09T11:25:38;9.60;;;4.70;;
71351;SDS011;59159;51.652;4.864;2023-04-09T11:28:04;9.23;;;4.68;;
71351;SDS011;59159;51.652;4.864;2023-04-09T11:30:30;9.05;;;5.03;;
71351;SDS011;59159;51.652;4.864;2023-04-09T11:32:58;8.82;;;5.10;;
71351;SDS011;59159;51.652;4.864;2023-04-09T11:35:24;9.60;;;4.93;;
71351;SDS011;59159;51.652;4.864;2023-04-09T11:37:50;9.10;;;5.03;;
71351;SDS011;59159;51.652;4.864;2023-04-09T11:40:21;10.23;;;4.82;;
71351;SDS011;59159;51.652;4.864;2023-04-09T11:42:48;8.83;;;4.90;;
71351;SDS011;59159;51.652;4.864;2023-04-09T11:45:15;8.77;;;5.10;;
71351;SDS011;59159;51.652;4.864;2023-04-09T11:47:41;10.02;;;4.93;;
71351;SDS011;59159;51.652;4.864;2023-04-09T11:50:08;9.50;;;4.87;;
71351;SDS011;59159;51.652;4.864;2023-04-09T11:52:34;11.55;;;5.18;;
71351;SDS011;59159;51.652;4.864;2023-04-09T11:55:03;9.95;;;5.80;;
71351;SDS011;59159;51.652;4.864;2023-04-09T11:57:36;11.10;;;5.40;;
71351;SDS011;59159;51.652;4.864;2023-04-09T12:00:05;10.70;;;4.90;;
71351;SDS011;59159;51.652;4.864;2023-04-09T12:02:32;10.77;;;5.53;;
71351;SDS011;59159;51.652;4.864;2023-04-09T12:05:01;10.43;;;5.10;;
71351;SDS011;59159;51.652;4.864;2023-04-09T12:07:34;9.57;;;5.00;;
71351;SDS011;59159;51.652;4.864;2023-04-09T12:10:08;13.40;;;5.97;;
71351;SDS011;59159;51.652;4.864;2023-04-09T12:12:44;10.93;;;5.60;;
71351;SDS011;59159;51.652;4.864;2023-04-09T12:17:37;11.38;;;5.60;;
71351;SDS011;59159;51.652;4.864;2023-04-09T12:20:03;12.02;;;5.78;;
71351;SDS011;59159;51.652;4.864;2023-04-09T12:22:32;10.05;;;5.65;;
71351;SDS011;59159;51.652;4.864;2023-04-09T12:24:58;10.07;;;5.20;;
71351;SDS011;59159;51.652;4.864;2023-04-09T12:27:24;10.35;;;4.97;;
71351;SDS011;59159;51.652;4.864;2023-04-09T12:29:50;10.75;;;5.35;;
71351;SDS011;59159;51.652;4.864;2023-04-09T12:32:16;10.83;;;5.23;;
71351;SDS011;59159;51.652;4.864;2023-04-09T12:34:42;11.23;;;5.82;;
71351;SDS011;59159;51.652;4.864;2023-04-09T12:37:08;10.85;;;5.18;;
71351;SDS011;59159;51.652;4.864;2023-04-09T12:39:34;10.30;;;5.60;;
71351;SDS011;59159;51.652;4.864;2023-04-09T12:42:00;10.68;;;4.97;;
71351;SDS011;59159;51.652;4.864;2023-04-09T12:44:26;10.95;;;5.10;;
71351;SDS011;59159;51.652;4.864;2023-04-09T12:46:52;10.65;;;4.85;;
71351;SDS011;59159;51.652;4.864;2023-04-09T12:49:19;9.87;;;5.40;;
71351;SDS011;59159;51.652;4.864;2023-04-09T12:51:45;9.45;;;4.65;;
71351;SDS011;59159;51.652;4.864;2023-04-09T12:54:11;10.73;;;5.13;;
71351;SDS011;59159;51.652;4.864;2023-04-09T12:56:37;10.87;;;5.30;;
71351;SDS011;59159;51.652;4.864;2023-04-09T12:59:03;10.07;;;4.93;;
71351;SDS011;59159;51.652;4.864;2023-04-09T13:01:29;9.80;;;4.78;;
71351;SDS011;59159;51.652;4.864;2023-04-09T13:03:55;9.33;;;4.80;;
71351;SDS011;59159;51.652;4.864;2023-04-09T13:06:21;8.25;;;4.35;;
71351;SDS011;59159;51.652;4.864;2023-04-09T13:08:47;9.38;;;4.38;;
71351;SDS011;59159;51.652;4.864;2023-04-09T13:11:13;10.30;;;4.85;;
71351;SDS011;59159;51.652;4.864;2023-04-09T13:13:39;9.37;;;4.37;;
71351;SDS011;59159;51.652;4.864;2023-04-09T13:16:06;8.65;;;4.75;;
71351;SDS011;59159;51.652;4.864;2023-04-09T13:18:32;10.32;;;4.57;;
71351;SDS011;59159;51.652;4.864;2023-04-09T13:20:58;8.77;;;4.63;;
71351;SDS011;59159;51.652;4.864;2023-04-09T13:23:24;8.82;;;4.40;;
71351;SDS011;59159;51.652;4.864;2023-04-09T13:25:50;9.10;;;4.70;;
71351;SDS011;59159;51.652;4.864;2023-04-09T13:28:16;8.00;;;4.20;;
71351;SDS011;59159;51.652;4.864;2023-04-09T13:30:42;8.98;;;4.60;;
71351;SDS011;59159;51.652;4.864;2023-04-09T13:33:08;9.38;;;4.65;;
71351;SDS011;59159;51.652;4.864;2023-04-09T13:35:35;9.65;;;3.97;;
71351;SDS011;59159;51.652;4.864;2023-04-09T13:38:01;7.77;;;4.00;;
71351;SDS011;59159;51.652;4.864;2023-04-09T13:40:27;7.97;;;3.97;;
71351;SDS011;59159;51.652;4.864;2023-04-09T13:42:53;8.80;;;4.38;;
71351;SDS011;59159;51.652;4.864;2023-04-09T13:45:19;9.67;;;4.63;;
71351;SDS011;59159;51.652;4.864;2023-04-09T13:47:47;9.40;;;4.60;;
71351;SDS011;59159;51.652;4.864;2023-04-09T13:50:13;8.82;;;4.65;;
71351;SDS011;59159;51.652;4.864;2023-04-09T13:52:39;8.03;;;4.10;;
71351;SDS011;59159;51.652;4.864;2023-04-09T13:55:06;9.55;;;4.30;;
71351;SDS011;59159;51.652;4.864;2023-04-09T13:57:32;10.85;;;4.68;;
71351;SDS011;59159;51.652;4.864;2023-04-09T13:59:58;8.63;;;4.00;;
71351;SDS011;59159;51.652;4.864;2023-04-09T14:02:27;8.60;;;4.03;;
71351;SDS011;59159;51.652;4.864;2023-04-09T14:04:54;7.40;;;4.03;;
71351;SDS011;59159;51.652;4.864;2023-04-09T14:07:20;10.27;;;4.78;;
71351;SDS011;59159;51.652;4.864;2023-04-09T14:09:46;9.20;;;4.27;;
71351;SDS011;59159;51.652;4.864;2023-04-09T14:12:12;8.10;;;3.92;;
71351;SDS011;59159;51.652;4.864;2023-04-09T14:14:38;8.68;;;3.88;;
71351;SDS011;59159;51.652;4.864;2023-04-09T14:17:05;7.97;;;4.13;;
71351;SDS011;59159;51.652;4.864;2023-04-09T14:19:31;7.90;;;3.80;;
71351;SDS011;59159;51.652;4.864;2023-04-09T14:21:57;10.63;;;3.75;;
71351;SDS011;59159;51.652;4.864;2023-04-09T14:24:23;9.07;;;4.07;;
71351;SDS011;59159;51.652;4.864;2023-04-09T14:26:49;8.73;;;3.80;;
71351;SDS011;59159;51.652;4.864;2023-04-09T14:29:17;8.10;;;3.55;;
71351;SDS011;59159;51.652;4.864;2023-04-09T14:31:43;8.85;;;3.55;;
71351;SDS011;59159;51.652;4.864;2023-04-09T14:34:11;7.23;;;4.13;;
71351;SDS011;59159;51.652;4.864;2023-04-09T14:36:37;8.02;;;4.40;;
71351;SDS011;59159;51.652;4.864;2023-04-09T14:39:02;8.88;;;3.80;;
71351;SDS011;59159;51.652;4.864;2023-04-09T14:41:29;11.63;;;5.47;;
71351;SDS011;59159;51.652;4.864;2023-04-09T14:43:58;10.63;;;5.38;;
71351;SDS011;59159;51.652;4.864;2023-04-09T14:46:24;9.70;;;5.32;;
71351;SDS011;59159;51.652;4.864;2023-04-09T14:48:50;10.82;;;5.78;;
71351;SDS011;59159;51.652;4.864;2023-04-09T14:51:16;11.27;;;6.07;;
71351;SDS011;59159;51.652;4.864;2023-04-09T14:53:42;10.23;;;5.90;;
71351;SDS011;59159;51.652;4.864;2023-04-09T14:56:08;10.35;;;5.85;;